Time;durP1;ratioP1;P1;durP2;ratioP2;P2;SDS_P1;SDS_P2;PMS_P1;PMS_P2;Temp;Humidity;BMP_temperature;BMP_pressure;BME280_temperature;BME280_humidity;BME280_pressure;Samples;Min_cycle;Max_cycle;Signal;HPM_P1;HPM_P2
2022/01/10 00:00:47;;;;;;;;;56.50;48.00;;;;;4.51;87.67;100582.84;5002034;28;45303;-78
2022/01/10 00:03:13;;;;;;;;;60.25;48.75;;;;;4.56;87.71;100580.63;5002101;28;45293;-78
2022/01/10 00:05:38;;;;;;;;;56.25;46.00;;;;;4.67;87.63;100585.75;5016141;28;47209;-78
2022/01/10 00:08:04;;;;;;;;;59.00;49.75;;;;;4.66;87.63;100581.47;5001879;28;45391;-78
2022/01/10 00:10:31;;;;;;;;;57.75;48.00;;;;;4.61;87.79;100564.44;5001684;28;45334;-78
2022/01/10 00:12:56;;;;;;;;;54.25;45.25;;;;;4.80;87.67;100596.03;5001640;28;45431;-78
2022/01/10 00:15:22;;;;;;;;;63.25;50.00;;;;;4.71;87.70;100582.84;5001687;28;46428;-78
2022/01/10 00:17:47;;;;;;;;;66.25;54.50;;;;;4.71;87.03;100606.53;5006902;28;45305;-78
2022/01/10 00:20:15;;;;;;;;;73.00;58.50;;;;;4.70;87.30;100615.41;5021577;28;45312;-78
2022/01/10 00:22:45;;;;;;;;;74.00;58.75;;;;;4.67;87.50;100600.72;5020203;28;46169;-78
2022/01/10 00:25:12;;;;;;;;;77.25;62.25;;;;;4.77;87.31;100629.69;5021269;28;46008;-78
2022/01/10 00:27:38;;;;;;;;;74.25;59.50;;;;;4.71;86.95;100627.59;5020147;28;45289;-79
2022/01/10 00:30:04;;;;;;;;;74.00;59.00;;;;;4.74;86.73;100632.59;5020085;28;45285;-79
2022/01/10 00:32:29;;;;;;;;;75.75;60.75;;;;;4.65;86.66;100621.09;5021232;28;45408;-78
2022/01/10 00:34:54;;;;;;;;;81.00;65.75;;;;;4.64;87.07;100620.25;5021052;28;45302;-78
2022/01/10 00:37:20;;;;;;;;;70.25;55.75;;;;;4.53;86.58;100601.97;5021275;28;45240;-78
2022/01/10 00:39:47;;;;;;;;;73.00;57.25;;;;;4.67;86.64;100640.22;5021331;28;45206;-78
2022/01/10 00:42:13;;;;;;;;;74.50;60.75;;;;;4.70;86.25;100652.28;5021171;28;45505;-78
2022/01/10 00:44:44;;;;;;;;;72.25;57.75;;;;;4.55;85.89;100632.44;5019651;28;47280;-78
2022/01/10 00:47:10;;;;;;;;;76.75;61.00;;;;;4.60;85.99;100652.25;5019579;28;45256;-78
2022/01/10 00:49:35;;;;;;;;;73.00;57.25;;;;;4.54;85.93;100658.91;5021007;28;45213;-79
2022/01/10 00:52:00;;;;;;;;;74.00;59.25;;;;;4.41;85.89;100649.47;5021211;28;45470;-77
2022/01/10 00:54:26;;;;;;;;;73.75;58.75;;;;;4.32;86.09;100638.91;5019413;28;46938;-78
2022/01/10 00:56:51;;;;;;;;;67.75;53.50;;;;;4.32;86.09;100646.81;5021050;28;45134;-79
2022/01/10 00:59:16;;;;;;;;;61.75;50.75;;;;;4.25;85.75;100649.97;5021148;28;45316;-78
2022/01/10 01:01:42;;;;;;;;;60.75;50.00;;;;;4.26;85.90;100659.56;5019592;28;46170;-78
2022/01/10 01:04:07;;;;;;;;;60.00;47.50;;;;;4.15;86.18;100660.50;5019428;28;47362;-78
2022/01/10 01:06:33;;;;;;;;;61.25;50.50;;;;;4.04;86.16;100664.03;5020475;28;45272;-78
2022/01/10 01:09:04;;;;;;;;;59.50;48.00;;;;;4.02;85.72;100673.03;5020763;28;45418;-78
2022/01/10 01:14:24;;;;;;;;;62.00;49.00;;;;;3.79;85.78;100671.44;5020489;28;45864;-78
2022/01/10 01:17:09;;;;;;;;;59.00;48.00;;;;;3.81;86.00;100688.88;5020481;28;45158;-78
2022/01/10 01:25:16;;;;;;;;;61.75;48.75;;;;;3.79;87.12;100704.78;4980778;28;45301;-78
2022/01/10 01:27:43;;;;;;;;;57.75;47.25;;;;;3.67;85.98;100698.75;4980813;28;45280;-78
2022/01/10 01:30:10;;;;;;;;;59.00;48.00;;;;;3.74;85.90;100720.94;4981093;28;45455;-78
2022/01/10 01:32:36;;;;;;;;;60.75;49.25;;;;;3.73;86.24;100723.69;4979503;28;46300;-78
2022/01/10 01:35:07;;;;;;;;;62.00;49.00;;;;;3.66;86.00;100718.13;4980473;28;45317;-78
2022/01/10 01:37:34;;;;;;;;;57.75;45.75;;;;;3.59;86.24;100723.06;4995931;28;45171;-78
2022/01/10 01:40:00;;;;;;;;;56.25;46.25;;;;;3.59;86.84;100736.19;4980692;28;45314;-79
2022/01/10 01:42:43;;;;;;;;;58.50;48.75;;;;;3.52;86.68;100725.38;4980652;28;45313;-78
2022/01/10 01:45:10;;;;;;;;;59.75;48.50;;;;;3.57;86.25;100734.66;4980770;28;46576;-78
2022/01/10 01:47:36;;;;;;;;;30.50;26.50;;;;;3.46;85.94;100733.78;4980636;28;45357;-78
2022/01/10 01:50:05;;;;;;;;;55.50;47.75;;;;;3.48;86.86;100755.50;4995507;28;45483;-79
2022/01/10 01:52:31;;;;;;;;;57.75;47.50;;;;;3.50;87.08;100761.44;4979276;28;47951;-78
2022/01/10 01:54:56;;;;;;;;;55.25;44.50;;;;;3.49;86.14;100759.78;4980397;28;45282;-78
2022/01/10 01:57:22;;;;;;;;;54.75;46.75;;;;;3.46;86.34;100760.03;4980608;28;45261;-78
2022/01/10 01:59:48;;;;;;;;;58.50;47.75;;;;;3.39;86.56;100749.19;4980866;28;45226;-78
2022/01/10 02:02:14;;;;;;;;;56.75;47.00;;;;;3.41;86.41;100749.06;4979084;28;46188;-78
2022/01/10 02:04:39;;;;;;;;;54.50;44.50;;;;;3.47;86.73;100760.88;4980174;28;45920;-78
2022/01/10 02:07:04;;;;;;;;;57.00;48.00;;;;;3.43;86.82;100749.78;4980204;28;45488;-78
2022/01/10 02:09:31;;;;;;;;;56.25;46.00;;;;;3.33;85.38;100744.47;4980353;28;45679;-78
2022/01/10 02:11:57;;;;;;;;;53.00;44.25;;;;;3.43;85.83;100765.56;4995401;28;47029;-78
2022/01/10 02:14:23;;;;;;;;;51.75;45.00;;;;;3.45;86.82;100770.69;4980209;28;45412;-79
2022/01/10 02:16:56;;;;;;;;;55.50;46.00;;;;;3.43;86.51;100773.44;4979159;28;45247;-78
2022/01/10 02:19:25;;;;;;;;;57.00;48.25;;;;;3.26;86.50;100752.00;5014941;28;45345;-78
2022/01/10 02:21:51;;;;;;;;;57.00;46.25;;;;;3.39;86.11;100772.03;5018481;28;46164;-78
2022/01/10 02:24:17;;;;;;;;;55.00;46.00;;;;;3.32;86.21;100766.44;5019610;28;46030;-79
2022/01/10 02:26:48;;;;;;;;;56.25;46.00;;;;;3.30;86.25;100784.13;5019754;28;45222;-78
2022/01/10 02:29:13;;;;;;;;;56.75;46.50;;;;;3.22;86.34;100773.41;5017888;28;45263;-78
2022/01/10 02:31:40;;;;;;;;;54.00;45.75;;;;;3.25;86.22;100781.03;5019670;28;45384;-78
2022/01/10 02:34:05;;;;;;;;;55.00;45.00;;;;;3.21;86.75;100783.09;5019425;28;45299;-78
2022/01/10 02:36:31;;;;;;;;;51.50;43.50;;;;;3.14;85.83;100777.47;5019192;28;45233;-78
2022/01/10 02:39:00;;;;;;;;;53.75;41.50;;;;;3.12;86.20;100774.13;5018062;28;45337;-79
2022/01/10 02:41:30;;;;;;;;;53.50;43.75;;;;;3.17;85.53;100791.34;5018091;28;46083;-79
2022/01/10 02:43:57;;;;;;;;;53.25;43.75;;;;;3.12;85.88;100781.19;5019420;28;46032;-79
2022/01/10 02:46:23;;;;;;;;;52.75;43.25;;;;;3.11;86.49;100790.88;5018111;28;45239;-78
2022/01/10 02:48:49;;;;;;;;;51.00;44.00;;;;;3.07;85.88;100802.59;5017949;28;45302;-78
2022/01/10 02:51:15;;;;;;;;;51.25;41.50;;;;;3.04;85.45;100800.19;5018965;28;45413;-79
2022/01/10 02:53:40;;;;;;;;;55.25;45.75;;;;;2.94;85.59;100797.50;5019130;28;45288;-79
2022/01/10 02:56:06;;;;;;;;;53.75;44.50;;;;;2.89;86.14;100797.00;5017849;28;45312;-78
2022/01/10 02:58:31;;;;;;;;;49.00;39.50;;;;;2.90;85.82;100804.75;5019517;28;45932;-78
2022/01/10 03:00:57;;;;;;;;;47.25;41.75;;;;;2.84;85.40;100802.63;5034486;28;47477;-78
2022/01/10 03:03:25;;;;;;;;;52.25;44.50;;;;;2.68;85.82;100782.00;5019148;28;46018;-79
2022/01/10 03:05:51;;;;;;;;;56.50;43.75;;;;;2.72;85.71;100793.13;5017453;28;45758;-78
2022/01/10 03:08:16;;;;;;;;;50.25;43.00;;;;;2.68;86.03;100803.00;5017885;28;45518;-79
2022/01/10 03:10:41;;;;;;;;;55.00;45.50;;;;;2.72;85.98;100811.50;5018938;28;45244;-79
2022/01/10 03:13:07;;;;;;;;;54.00;45.25;;;;;2.74;86.02;100825.31;5019048;28;46035;-79
2022/01/10 03:15:32;;;;;;;;;51.75;43.75;;;;;2.60;86.05;100806.22;5017741;28;45284;-78
2022/01/10 03:17:57;;;;;;;;;55.25;44.25;;;;;2.67;85.79;100826.75;5012270;28;45481;-79
2022/01/10 03:20:23;;;;;;;;;55.50;45.00;;;;;2.62;85.68;100820.06;5030702;28;46101;-78
2022/01/10 03:22:50;;;;;;;;;54.00;44.75;;;;;2.52;86.19;100816.50;4999048;28;45346;-78
2022/01/10 03:25:15;;;;;;;;;52.25;43.75;;;;;2.49;85.82;100822.81;4997666;28;45281;-79
2022/01/10 03:27:41;;;;;;;;;53.50;44.50;;;;;2.54;85.19;100838.19;5014419;28;45328;-79
2022/01/10 03:30:07;;;;;;;;;49.75;44.00;;;;;2.56;85.44;100843.31;4999062;28;45317;-79
2022/01/10 03:32:32;;;;;;;;;49.00;42.25;;;;;2.40;85.67;100815.66;4998990;28;45281;-79
2022/01/10 03:34:58;;;;;;;;;49.25;43.50;;;;;2.46;85.28;100830.94;4998695;28;45438;-79
2022/01/10 03:37:26;;;;;;;;;54.25;46.25;;;;;2.30;85.67;100817.31;4999155;28;45850;-79
2022/01/10 03:39:52;;;;;;;;;54.00;43.75;;;;;2.28;86.04;100835.81;5030629;28;46185;-78
2022/01/10 03:42:17;;;;;;;;;52.00;44.00;;;;;2.26;86.19;100843.78;5001342;28;45472;-79
2022/01/10 03:44:43;;;;;;;;;47.25;42.25;;;;;2.27;85.89;100844.59;5017567;28;45258;-79
2022/01/10 03:47:10;;;;;;;;;46.75;40.50;;;;;2.29;86.16;100858.47;5002525;28;45433;-79
2022/01/10 03:49:36;;;;;;;;;47.25;41.75;;;;;2.27;86.03;100855.09;5001968;28;45538;-79
2022/01/10 03:52:02;;;;;;;;;53.75;44.25;;;;;2.36;87.00;100878.00;5002073;28;45368;-79
2022/01/10 03:54:27;;;;;;;;;50.25;43.25;;;;;2.24;86.12;100864.03;5033693;28;45324;-78
2022/01/10 03:56:53;;;;;;;;;61.00;48.50;;;;;2.35;85.61;100880.75;5002158;28;45315;-79
2022/01/10 03:59:18;;;;;;;;;55.00;44.25;;;;;2.24;86.79;100869.28;5002264;28;45248;-79
2022/01/10 04:01:44;;;;;;;;;55.75;45.00;;;;;2.29;86.78;100887.31;5001946;28;45244;-79
2022/01/10 04:04:09;;;;;;;;;54.75;44.25;;;;;2.12;86.74;100864.97;5002100;28;45198;-79
2022/01/10 04:06:35;;;;;;;;;53.75;45.50;;;;;2.29;86.78;100896.94;5033608;28;45455;-78
2022/01/10 04:09:01;;;;;;;;;49.00;43.00;;;;;2.24;86.19;100898.16;5001880;28;45648;-79
2022/01/10 04:11:26;;;;;;;;;58.50;50.00;;;;;2.05;86.39;100889.97;5001645;28;46061;-79
2022/01/10 04:13:52;;;;;;;;;52.50;43.50;;;;;2.05;86.63;100896.06;5001867;28;45313;-80
2022/01/10 04:16:17;;;;;;;;;56.00;45.50;;;;;2.08;86.47;100903.72;5001951;28;45349;-79
2022/01/10 04:18:43;;;;;;;;;54.75;45.00;;;;;1.95;86.10;100889.84;5013118;28;47214;-79
2022/01/10 04:21:08;;;;;;;;;49.75;42.25;;;;;1.94;86.43;100890.81;5021431;28;45290;-79
2022/01/10 04:23:33;;;;;;;;;52.50;43.25;;;;;2.00;86.94;100919.16;5020226;28;45468;-78
2022/01/10 04:25:59;;;;;;;;;54.00;45.25;;;;;1.97;86.72;100909.75;5020083;28;45368;-79
2022/01/10 04:28:25;;;;;;;;;59.25;48.50;;;;;1.98;87.05;100927.13;5020290;28;46281;-79
2022/01/10 04:30:50;;;;;;;;;55.00;45.50;;;;;1.95;86.53;100927.38;5021371;28;45298;-79
2022/01/10 04:33:18;;;;;;;;;46.50;41.75;;;;;1.94;86.98;100911.78;5021416;28;45332;-79
2022/01/10 04:35:44;;;;;;;;;49.25;42.75;;;;;2.01;86.30;100929.53;5021313;28;45295;-79
2022/01/10 04:38:11;;;;;;;;;49.75;42.75;;;;;2.05;86.50;100938.03;5021125;28;45556;-78
2022/01/10 04:40:37;;;;;;;;;53.25;43.25;;;;;1.95;86.03;100934.41;5021133;28;45282;-79
2022/01/10 04:43:02;;;;;;;;;55.25;46.00;;;;;2.02;86.33;100951.34;5019737;28;45436;-79
2022/01/10 04:45:28;;;;;;;;;49.00;43.25;;;;;1.89;85.67;100939.13;5020046;28;45422;-79
2022/01/10 04:47:53;;;;;;;;;51.25;45.25;;;;;1.99;85.98;100956.81;5021287;28;45463;-79
2022/01/10 04:52:52;;;;;;;;;49.75;43.00;;;;;1.82;86.44;100953.66;5020840;28;45261;-79
2022/01/10 04:55:19;;;;;;;;;51.50;43.50;;;;;1.86;86.57;100978.69;5019728;28;45292;-79
2022/01/10 04:57:44;;;;;;;;;51.25;44.00;;;;;1.74;85.44;100969.09;5019555;28;45391;-79
2022/01/10 05:00:12;;;;;;;;;49.75;43.00;;;;;1.78;86.32;100986.28;5019630;28;47179;-79
2022/01/10 05:02:39;;;;;;;;;51.50;43.75;;;;;1.75;87.20;100983.88;5020930;28;45436;-79
2022/01/10 05:05:05;;;;;;;;;55.50;44.25;;;;;1.70;86.84;100972.88;5020745;28;45257;-78
2022/01/10 05:07:31;;;;;;;;;50.00;40.75;;;;;1.72;86.98;100978.84;5020410;28;46655;-78
2022/01/10 05:09:57;;;;;;;;;50.75;42.50;;;;;1.74;87.04;100982.22;5020352;28;45287;-78
2022/01/10 05:12:25;;;;;;;;;49.00;41.50;;;;;1.84;87.04;101004.19;5020689;28;45169;-78
2022/01/10 05:14:51;;;;;;;;;46.75;40.75;;;;;1.86;87.50;101011.94;5019484;28;45422;-78
2022/01/10 05:17:19;;;;;;;;;47.00;39.50;;;;;1.87;87.72;101013.59;5019352;28;45249;-78
2022/01/10 05:19:44;;;;;;;;;41.75;37.25;;;;;1.85;87.14;101013.72;5032352;28;48116;-79
2022/01/10 05:22:09;;;;;;;;;45.50;38.50;;;;;1.89;87.61;101007.31;5032656;28;45262;-79
2022/01/10 05:24:35;;;;;;;;;39.25;36.75;;;;;1.87;87.20;101018.84;5000701;28;45273;-78
2022/01/10 05:27:00;;;;;;;;;45.50;39.50;;;;;1.89;87.34;101023.03;5000683;28;45229;-78
2022/01/10 05:29:26;;;;;;;;;39.25;35.25;;;;;1.93;87.05;101026.28;5000672;28;45269;-78
2022/01/10 05:31:51;;;;;;;;;48.00;40.00;;;;;1.85;87.28;101025.97;5000685;28;45272;-78
2022/01/10 05:34:16;;;;;;;;;38.50;37.00;;;;;1.85;86.77;101032.06;5000409;28;45347;-79
2022/01/10 05:36:42;;;;;;;;;45.25;39.75;;;;;1.84;87.06;101040.88;5000435;28;45528;-78
2022/01/10 05:39:07;;;;;;;;;39.75;37.75;;;;;1.89;87.77;101048.44;5032223;28;47579;-78
2022/01/10 05:41:34;;;;;;;;;45.25;40.25;;;;;1.97;87.83;101061.81;5000534;28;45276;-78
2022/01/10 05:43:59;;;;;;;;;34.75;29.00;;;;;2.00;87.51;101058.13;5032328;28;45513;-78
2022/01/10 05:46:25;;;;;;;;;39.75;37.00;;;;;2.04;88.47;101066.63;5000277;28;45400;-78
2022/01/10 05:48:53;;;;;;;;;47.25;37.00;;;;;2.04;88.03;101059.59;5000208;28;46676;-78
2022/01/10 05:51:22;;;;;;;;;37.50;36.75;;;;;2.13;87.28;101071.22;5000252;28;45249;-78
2022/01/10 05:53:48;;;;;;;;;39.75;34.75;;;;;2.18;88.03;101073.50;5000226;28;45217;-78
2022/01/10 05:56:15;;;;;;;;;39.75;36.25;;;;;2.23;87.91;101080.09;5031705;28;45329;-79
2022/01/10 05:58:40;;;;;;;;;43.00;39.00;;;;;2.17;88.68;101063.94;5015354;28;46677;-78
2022/01/10 06:01:06;;;;;;;;;38.75;37.50;;;;;2.32;88.37;101091.69;5000123;28;45284;-78
2022/01/10 06:03:31;;;;;;;;;38.00;35.75;;;;;2.37;87.76;101099.22;4999720;28;45427;-79
2022/01/10 06:05:56;;;;;;;;;40.50;33.75;;;;;2.35;87.71;101088.84;4999702;28;45331;-79
2022/01/10 06:08:22;;;;;;;;;36.00;32.50;;;;;2.51;87.98;101119.19;5000150;28;45313;-79
2022/01/10 06:10:47;;;;;;;;;25.50;25.50;;;;;2.44;88.43;101113.56;5031586;28;45404;-78
2022/01/10 06:13:12;;;;;;;;;31.75;29.00;;;;;2.42;88.62;101118.09;5000154;28;45269;-78
2022/01/10 06:15:38;;;;;;;;;31.75;30.25;;;;;2.48;88.21;101130.78;5031659;28;46480;-78
2022/01/10 06:18:04;;;;;;;;;28.00;24.75;;;;;2.42;88.52;101135.63;5007285;28;45373;-78
2022/01/10 06:20:29;;;;;;;;;30.75;27.50;;;;;2.39;88.49;101134.06;5018229;28;45202;-78
2022/01/10 06:22:55;;;;;;;;;28.00;25.50;;;;;2.50;88.42;101149.88;5018442;28;45215;-78
2022/01/10 06:25:24;;;;;;;;;29.50;27.75;;;;;2.36;87.85;101136.88;5018251;28;46170;-78
2022/01/10 06:27:50;;;;;;;;;24.75;24.75;;;;;2.44;87.68;101159.97;5019711;28;46629;-79
2022/01/10 06:30:15;;;;;;;;;27.50;23.00;;;;;2.46;88.25;101172.03;5019574;28;45323;-79
2022/01/10 06:32:41;;;;;;;;;27.50;25.50;;;;;2.47;87.13;101167.63;5019749;28;45334;-79
2022/01/10 06:35:06;;;;;;;;;26.75;25.50;;;;;2.46;87.60;101163.31;5018025;28;45984;-79
2022/01/10 06:37:32;;;;;;;;;25.75;25.25;;;;;2.44;88.06;101173.06;5019561;28;46417;-78
2022/01/10 06:39:58;;;;;;;;;27.00;26.50;;;;;2.54;87.74;101183.78;5018162;28;45395;-79
2022/01/10 06:42:23;;;;;;;;;23.25;21.00;;;;;2.44;88.05;101180.94;5019803;28;45306;-79
2022/01/10 06:44:49;;;;;;;;;31.50;23.50;;;;;2.55;88.14;101202.03;5019507;28;45306;-79
2022/01/10 06:47:14;;;;;;;;;28.00;27.25;;;;;2.57;88.15;101200.13;5019383;28;45805;-78
2022/01/10 06:49:39;;;;;;;;;21.75;20.25;;;;;2.55;88.16;101198.56;5017664;28;45242;-78
2022/01/10 06:52:05;;;;;;;;;21.25;20.50;;;;;2.52;88.56;101205.69;5019581;28;45216;-78
2022/01/10 06:54:30;;;;;;;;;22.50;21.25;;;;;2.59;87.65;101218.38;5017787;28;46273;-78
2022/01/10 06:56:59;;;;;;;;;24.00;22.50;;;;;2.62;88.86;101211.13;5019170;28;45207;-78
2022/01/10 06:59:27;;;;;;;;;27.75;19.50;;;;;2.62;88.45;101213.75;5019357;28;45347;-78
2022/01/10 07:01:56;;;;;;;;;18.75;18.25;;;;;2.73;88.43;101231.34;5019862;28;45254;-77
2022/01/10 07:04:22;;;;;;;;;20.00;17.75;;;;;2.75;88.24;101237.34;5018055;28;46332;-77
2022/01/10 07:06:47;;;;;;;;;24.25;23.25;;;;;2.70;88.49;101228.13;5019637;28;45192;-78
2022/01/10 07:09:12;;;;;;;;;20.50;20.50;;;;;2.74;89.38;101230.41;5018430;28;45726;-78
2022/01/10 07:11:38;;;;;;;;;24.00;22.50;;;;;2.68;88.91;101224.75;5011349;28;45278;-79
2022/01/10 07:14:04;;;;;;;;;21.50;21.00;;;;;2.83;89.01;101246.44;5000079;28;45204;-78
2022/01/10 07:16:29;;;;;;;;;27.75;24.75;;;;;2.87;88.74;101258.38;5000554;28;45875;-79
2022/01/10 07:18:54;;;;;;;;;26.75;23.50;;;;;2.82;88.14;101244.78;5017063;28;45325;-79
2022/01/10 07:21:20;;;;;;;;;27.75;26.75;;;;;2.92;88.54;101261.53;5022714;28;45404;-78
2022/01/10 07:23:45;;;;;;;;;33.25;28.00;;;;;3.09;88.21;101286.59;5022552;28;45306;-78
2022/01/10 07:26:11;;;;;;;;;25.50;24.50;;;;;3.12;88.51;101288.16;5022390;28;45313;-79
2022/01/10 07:28:36;;;;;;;;;32.50;26.25;;;;;3.15;87.84;101299.25;5022453;28;45261;-79
2022/01/10 07:31:01;;;;;;;;;25.75;22.50;;;;;3.15;87.94;101298.44;5022552;28;45324;-79
2022/01/10 07:33:27;;;;;;;;;34.50;29.75;;;;;3.26;88.56;101316.03;5023040;28;45485;-79
2022/01/10 07:35:52;;;;;;;;;40.25;33.50;;;;;3.19;87.73;101304.28;5022937;28;45281;-80
2022/01/10 07:38:17;;;;;;;;;37.75;31.50;;;;;3.23;87.61;101317.09;5022361;28;45316;-80
2022/01/10 07:40:43;;;;;;;;;31.00;30.00;;;;;3.37;88.05;101337.13;5022365;28;45321;-79
2022/01/10 07:43:08;;;;;;;;;36.00;30.50;;;;;3.38;87.42;101330.09;5022222;28;45517;-79
2022/01/10 07:45:34;;;;;;;;;33.00;29.00;;;;;3.34;87.85;101332.09;5022317;28;45315;-80
2022/01/10 07:48:00;;;;;;;;;31.00;30.50;;;;;3.34;88.28;101339.97;5022241;28;45154;-79
2022/01/10 07:50:25;;;;;;;;;35.00;32.25;;;;;3.31;88.17;101329.69;5021962;28;45230;-79
2022/01/10 07:52:51;;;;;;;;;33.25;29.00;;;;;3.41;87.53;101346.44;5020774;28;46011;-77
2022/01/10 07:55:16;;;;;;;;;29.50;28.50;;;;;3.56;87.44;101363.84;5021805;28;46070;-77
2022/01/10 07:57:42;;;;;;;;;30.75;26.25;;;;;3.51;87.63;101351.03;5022013;28;45296;-76
2022/01/10 08:00:08;;;;;;;;;29.25;24.50;;;;;3.52;87.16;101352.69;5022103;28;45296;-76
2022/01/10 08:02:34;;;;;;;;;30.50;26.00;;;;;3.66;87.99;101370.09;5022047;28;45147;-77
2022/01/10 08:04:59;;;;;;;;;49.75;41.50;;;;;3.59;88.31;101374.97;5017043;28;45662;-76
2022/01/10 08:07:25;;;;;;;;;64.50;53.00;;;;;3.58;87.61;101372.44;5000502;28;45250;-76
2022/01/10 08:09:50;;;;;;;;;53.00;41.50;;;;;3.63;88.22;101378.22;4999629;28;45406;-76
2022/01/10 08:12:16;;;;;;;;;42.50;36.50;;;;;3.72;88.10;101395.09;5001152;28;45365;-77
2022/01/10 08:14:41;;;;;;;;;41.75;37.25;;;;;3.69;87.90;101390.06;4997149;28;45985;-77
2022/01/10 08:17:07;;;;;;;;;45.50;37.75;;;;;3.80;87.32;101411.13;5001117;28;45350;-76
2022/01/10 08:19:34;;;;;;;;;43.25;39.00;;;;;3.76;87.57;101384.25;5016141;28;45499;-76
2022/01/10 08:22:02;;;;;;;;;44.50;36.50;;;;;3.96;87.59;101405.59;5000888;28;45172;-78
2022/01/10 08:24:28;;;;;;;;;44.25;37.75;;;;;4.01;88.09;101416.59;4999815;28;46110;-77
2022/01/10 08:26:54;;;;;;;;;36.25;32.75;;;;;3.99;88.44;101409.78;4997979;28;45541;-76
2022/01/10 08:29:23;;;;;;;;;27.75;25.25;;;;;4.02;87.57;101409.56;5000915;28;45584;-76
2022/01/10 08:31:48;;;;;;;;;23.75;20.75;;;;;4.08;88.09;101424.03;5030226;28;46550;-76
2022/01/10 08:34:14;;;;;;;;;27.50;24.25;;;;;4.14;87.47;101423.59;5000312;28;46307;-76
2022/01/10 08:36:40;;;;;;;;;21.75;18.25;;;;;4.25;87.88;101443.84;5000305;28;45428;-76
2022/01/10 08:39:07;;;;;;;;;21.75;20.75;;;;;4.20;87.91;101425.75;4999000;28;45264;-77
2022/01/10 08:41:35;;;;;;;;;18.25;16.25;;;;;4.32;87.98;101438.94;5015829;28;46279;-75
2022/01/10 08:44:02;;;;;;;;;22.33;21.33;;;;;4.27;87.37;101439.28;5000745;28;45459;-77
2022/01/10 08:46:27;;;;;;;;;19.33;16.00;;;;;4.35;87.87;101449.25;5001296;28;45311;-75
2022/01/10 08:48:53;;;;;;;;;24.75;22.75;;;;;4.39;87.38;101451.53;5016717;28;45385;-75
2022/01/10 08:51:18;;;;;;;;;17.00;13.67;;;;;4.47;87.30;101458.84;5016132;28;45977;-76
2022/01/10 08:53:44;;;;;;;;;16.00;16.00;;;;;4.55;87.62;101466.19;4999002;28;45225;-75
2022/01/10 08:56:09;;;;;;;;;18.67;17.33;;;;;4.55;87.74;101459.09;5000488;28;45314;-75
2022/01/10 08:58:34;;;;;;;;;21.67;17.67;;;;;4.62;86.94;101466.53;5001466;28;45500;-76
2022/01/10 09:01:02;;;;;;;;;20.00;19.33;;;;;4.69;87.45;101473.00;5001274;28;45353;-75
2022/01/10 09:03:27;;;;;;;;;15.33;13.33;;;;;4.73;87.49;101481.53;5000992;28;46408;-75
2022/01/10 09:05:55;;;;;;;;;21.67;17.67;;;;;4.74;87.13;101480.56;5000821;28;45249;-76
2022/01/10 09:08:21;;;;;;;;;14.67;13.33;;;;;4.77;87.09;101496.13;5001240;28;45322;-75
2022/01/10 09:10:47;;;;;;;;;15.67;14.00;;;;;4.67;86.72;101477.56;5000718;28;45323;-77
2022/01/10 09:13:12;;;;;;;;;15.67;14.67;;;;;4.73;86.83;101487.59;5000832;28;46333;-77
2022/01/10 09:15:37;;;;;;;;;16.33;15.33;;;;;4.82;87.34;101499.22;5000935;28;45446;-77
2022/01/10 09:18:03;;;;;;;;;20.00;17.67;;;;;4.80;87.57;101495.91;5023748;28;45706;-78
2022/01/10 09:20:29;;;;;;;;;15.00;13.00;;;;;4.76;87.54;101482.09;5020322;28;45471;-80
2022/01/10 09:22:55;;;;;;;;;18.33;16.67;;;;;4.90;87.38;101499.50;5020528;28;45911;-75
2022/01/10 09:25:22;;;;;;;;;17.33;16.67;;;;;4.89;87.31;101494.34;5020549;28;45281;-76
2022/01/10 09:27:48;;;;;;;;;16.00;14.33;;;;;4.82;87.25;101501.06;5019388;28;45293;-76
2022/01/10 09:30:13;;;;;;;;;24.50;23.50;;;;;4.95;87.08;101522.00;5020106;28;45348;-76
2022/01/10 09:32:39;;;;;;;;;16.67;16.00;;;;;4.88;86.96;101519.84;5018053;28;47175;-75
2022/01/10 09:35:07;;;;;;;;;13.67;11.67;;;;;4.89;86.69;101532.09;5020180;28;45276;-76
2022/01/10 09:37:32;;;;;;;;;17.00;14.33;;;;;4.90;86.92;101543.44;5020629;28;45373;-75
2022/01/10 09:39:57;;;;;;;;;16.00;15.00;;;;;4.81;87.04;101529.19;5017051;28;45649;-76
2022/01/10 09:42:23;;;;;;;;;15.33;15.33;;;;;4.95;86.72;101546.56;5018372;28;45390;-75
2022/01/10 09:44:49;;;;;;;;;21.33;19.00;;;;;4.94;86.74;101547.53;5019321;28;45378;-76
2022/01/10 09:47:14;;;;;;;;;24.75;19.25;;;;;4.99;86.81;101552.44;5020299;28;45302;-75
2022/01/10 09:49:40;;;;;;;;;16.33;16.33;;;;;4.92;86.78;101539.75;5020094;28;45229;-76
2022/01/10 09:52:06;;;;;;;;;15.00;14.67;;;;;5.07;86.61;101560.59;5018647;28;48237;-75
2022/01/10 09:54:31;;;;;;;;;17.00;16.00;;;;;5.08;86.28;101557.00;5020041;28;45232;-74
2022/01/10 09:56:57;;;;;;;;;17.00;16.67;;;;;5.01;86.19;101563.69;5020274;28;45694;-75
2022/01/10 09:59:22;;;;;;;;;20.33;17.67;;;;;5.03;86.21;101554.72;5020061;28;45260;-75
2022/01/10 10:01:51;;;;;;;;;20.00;20.00;;;;;5.05;86.35;101586.22;5020221;28;46296;-75
2022/01/10 10:04:18;;;;;;;;;18.33;16.67;;;;;4.95;86.90;101575.56;5019974;28;45355;-76
2022/01/10 10:06:45;;;;;;;;;19.33;15.67;;;;;5.11;86.53;101598.09;5019395;28;45443;-76
2022/01/10 10:09:11;;;;;;;;;11.00;11.00;;;;;5.15;86.43;101597.75;4994915;28;45240;-76
2022/01/10 10:11:45;;;;;;;;;15.33;12.00;;;;;5.13;86.01;101602.31;4989544;28;45321;-77
2022/01/10 10:14:17;;;;;;;;;16.00;15.67;;;;;5.01;86.78;101584.78;4999675;28;45352;-76
2022/01/10 10:16:49;;;;;;;;;17.33;12.67;;;;;5.13;86.30;101615.47;4999976;28;45543;-78
2022/01/10 10:19:25;;;;;;;;;20.33;15.00;;;;;5.15;86.37;101621.47;5016703;28;45333;-77
2022/01/10 10:21:52;;;;;;;;;16.33;14.00;;;;;5.13;85.80;101620.75;4996825;28;47526;-77
2022/01/10 10:24:19;;;;;;;;;20.33;14.33;;;;;5.13;86.49;101618.13;4997997;28;45354;-76
2022/01/10 10:26:45;;;;;;;;;13.67;11.00;;;;;5.11;86.15;101613.91;4999621;28;45503;-76
2022/01/10 10:29:13;;;;;;;;;17.00;14.33;;;;;5.12;86.31;101619.06;4996704;28;45274;-77
2022/01/10 10:31:48;;;;;;;;;20.67;16.33;;;;;5.10;86.35;101614.84;4999090;28;47129;-76
2022/01/10 10:34:27;;;;;;;;;14.33;14.33;;;;;5.16;86.10;101623.16;4999383;28;45329;-77
2022/01/10 10:37:03;;;;;;;;;13.00;12.33;;;;;5.04;86.38;101608.28;4999803;28;45352;-78
2022/01/10 10:39:30;;;;;;;;;14.00;12.67;;;;;5.25;86.56;101636.56;5014756;28;45459;-78
2022/01/10 10:42:00;;;;;;;;;9.67;9.67;;;;;5.24;86.17;101627.00;5014686;28;48353;-78
2022/01/10 10:44:27;;;;;;;;;9.67;9.33;;;;;5.25;86.09;101631.31;4996823;28;45474;-76
2022/01/10 10:46:52;;;;;;;;;13.67;12.00;;;;;5.29;86.03;101640.66;4999160;28;45278;-76
2022/01/10 10:49:20;;;;;;;;;14.33;14.33;;;;;5.26;86.05;101643.53;4999129;28;45425;-77
2022/01/10 10:51:49;;;;;;;;;15.33;14.67;;;;;5.26;86.38;101638.25;5002494;28;46058;-77
2022/01/10 10:54:16;;;;;;;;;17.00;16.00;;;;;5.21;86.23;101632.50;5001834;28;45435;-76
2022/01/10 10:56:43;;;;;;;;;16.67;16.67;;;;;5.26;86.41;101644.38;5010025;28;45385;-76
2022/01/10 10:59:11;;;;;;;;;13.67;13.67;;;;;5.33;86.50;101663.22;5007079;28;45352;-76
2022/01/10 11:01:37;;;;;;;;;10.00;9.33;;;;;5.36;86.61;101662.94;5001749;28;45250;-76
2022/01/10 11:04:04;;;;;;;;;12.33;10.67;;;;;5.29;86.12;101651.19;5001274;28;45931;-76
2022/01/10 11:06:33;;;;;;;;;9.33;9.33;;;;;5.22;85.96;101642.09;5002645;28;45332;-78
2022/01/10 11:09:03;;;;;;;;;12.00;12.00;;;;;5.12;86.25;101632.22;5002535;28;45552;-77
2022/01/10 11:11:29;;;;;;;;;17.33;16.67;;;;;5.24;86.80;101645.44;5002323;28;45512;-77
2022/01/10 11:13:56;;;;;;;;;15.67;13.67;;;;;5.26;86.44;101646.16;5034273;28;45407;-78
2022/01/10 11:16:25;;;;;;;;;28.00;22.67;;;;;5.39;86.86;101657.44;5002597;28;45317;-77
2022/01/10 11:18:51;;;;;;;;;22.00;20.67;;;;;5.41;86.56;101660.81;5016288;28;45466;-76
2022/01/10 11:21:17;;;;;;;;;17.67;15.67;;;;;5.47;86.41;101666.56;5021041;28;47464;-78
2022/01/10 11:23:45;;;;;;;;;19.00;18.00;;;;;5.49;86.35;101667.28;5020267;28;45343;-78